sensor_id;sensor_type;location;lat;lon;timestamp;P1;durP1;ratioP1;P2;durP2;ratioP2
37303;SDS011;23188;51.188;16.374;2022-10-31T00:01:51;17.52;;;11.95;;
37303;SDS011;23188;51.188;16.374;2022-10-31T00:10:18;18.32;;;11.43;;
37303;SDS011;23188;51.188;16.374;2022-10-31T00:14:19;19.57;;;12.53;;
37303;SDS011;23188;51.188;16.374;2022-10-31T00:18:26;18.10;;;10.70;;
37303;SDS011;23188;51.188;16.374;2022-10-31T00:22:27;19.48;;;12.98;;
37303;SDS011;23188;51.188;16.374;2022-10-31T00:26:33;22.32;;;11.48;;
37303;SDS011;23188;51.188;16.374;2022-10-31T00:30:32;21.40;;;13.55;;
37303;SDS011;23188;51.188;16.374;2022-10-31T00:34:34;15.60;;;10.95;;
37303;SDS011;23188;51.188;16.374;2022-10-31T00:42:45;18.52;;;11.45;;
37303;SDS011;23188;51.188;16.374;2022-10-31T00:46:47;16.97;;;9.98;;
37303;SDS011;23188;51.188;16.374;2022-10-31T00:50:48;23.10;;;10.72;;
37303;SDS011;23188;51.188;16.374;2022-10-31T00:54:49;18.45;;;12.30;;
37303;SDS011;23188;51.188;16.374;2022-10-31T00:58:50;17.52;;;10.60;;
37303;SDS011;23188;51.188;16.374;2022-10-31T01:02:52;14.68;;;11.08;;
37303;SDS011;23188;51.188;16.374;2022-10-31T01:11:02;27.82;;;12.78;;
37303;SDS011;23188;51.188;16.374;2022-10-31T01:15:14;14.07;;;9.60;;
37303;SDS011;23188;51.188;16.374;2022-10-31T01:19:18;17.27;;;10.23;;
37303;SDS011;23188;51.188;16.374;2022-10-31T01:23:20;15.25;;;10.25;;
37303;SDS011;23188;51.188;16.374;2022-10-31T01:27:21;16.35;;;12.03;;
37303;SDS011;23188;51.188;16.374;2022-10-31T01:31:24;15.95;;;12.18;;
37303;SDS011;23188;51.188;16.374;2022-10-31T01:35:35;14.13;;;10.05;;
37303;SDS011;23188;51.188;16.374;2022-10-31T01:39:45;13.25;;;9.25;;
37303;SDS011;23188;51.188;16.374;2022-10-31T01:48:30;13.25;;;9.10;;
37303;SDS011;23188;51.188;16.374;2022-10-31T01:52:42;11.73;;;8.85;;
37303;SDS011;23188;51.188;16.374;2022-10-31T02:01:00;13.10;;;9.10;;
37303;SDS011;23188;51.188;16.374;2022-10-31T02:05:08;15.63;;;10.82;;
37303;SDS011;23188;51.188;16.374;2022-10-31T02:09:12;12.30;;;9.03;;
37303;SDS011;23188;51.188;16.374;2022-10-31T02:13:15;14.87;;;10.48;;
37303;SDS011;23188;51.188;16.374;2022-10-31T02:17:16;13.72;;;10.18;;
37303;SDS011;23188;51.188;16.374;2022-10-31T02:30:41;14.28;;;9.60;;
37303;SDS011;23188;51.188;16.374;2022-10-31T02:39:23;15.63;;;9.93;;
37303;SDS011;23188;51.188;16.374;2022-10-31T02:43:33;16.25;;;10.45;;
37303;SDS011;23188;51.188;16.374;2022-10-31T02:47:42;16.02;;;9.55;;
37303;SDS011;23188;51.188;16.374;2022-10-31T02:51:46;17.70;;;9.88;;
37303;SDS011;23188;51.188;16.374;2022-10-31T03:00:20;19.82;;;9.43;;
37303;SDS011;23188;51.188;16.374;2022-10-31T03:04:29;13.32;;;10.48;;
37303;SDS011;23188;51.188;16.374;2022-10-31T03:08:47;17.30;;;10.38;;
37303;SDS011;23188;51.188;16.374;2022-10-31T03:17:29;15.65;;;9.03;;
37303;SDS011;23188;51.188;16.374;2022-10-31T03:21:43;15.30;;;9.78;;
37303;SDS011;23188;51.188;16.374;2022-10-31T03:25:48;13.62;;;9.65;;
37303;SDS011;23188;51.188;16.374;2022-10-31T03:30:09;13.03;;;9.60;;
37303;SDS011;23188;51.188;16.374;2022-10-31T03:34:11;13.90;;;8.55;;
37303;SDS011;23188;51.188;16.374;2022-10-31T03:38:22;12.03;;;8.08;;
37303;SDS011;23188;51.188;16.374;2022-10-31T04:00:03;13.35;;;9.78;;
37303;SDS011;23188;51.188;16.374;2022-10-31T04:04:09;11.70;;;9.03;;
37303;SDS011;23188;51.188;16.374;2022-10-31T04:08:12;12.20;;;8.30;;
37303;SDS011;23188;51.188;16.374;2022-10-31T04:12:18;13.83;;;8.85;;
37303;SDS011;23188;51.188;16.374;2022-10-31T04:16:21;14.00;;;8.13;;
37303;SDS011;23188;51.188;16.374;2022-10-31T04:20:41;19.40;;;8.05;;
37303;SDS011;23188;51.188;16.374;2022-10-31T04:24:42;16.25;;;9.05;;
37303;SDS011;23188;51.188;16.374;2022-10-31T04:28:45;16.25;;;8.68;;
37303;SDS011;23188;51.188;16.374;2022-10-31T04:32:47;10.95;;;8.60;;
37303;SDS011;23188;51.188;16.374;2022-10-31T04:36:48;11.75;;;8.08;;
37303;SDS011;23188;51.188;16.374;2022-10-31T04:40:50;27.75;;;9.20;;
37303;SDS011;23188;51.188;16.374;2022-10-31T04:44:51;9.75;;;6.55;;
37303;SDS011;23188;51.188;16.374;2022-10-31T04:48:52;13.45;;;8.43;;
37303;SDS011;23188;51.188;16.374;2022-10-31T04:57:07;24.50;;;8.95;;
37303;SDS011;23188;51.188;16.374;2022-10-31T05:01:08;12.98;;;8.75;;
37303;SDS011;23188;51.188;16.374;2022-10-31T05:05:10;11.30;;;7.50;;
37303;SDS011;23188;51.188;16.374;2022-10-31T05:09:12;11.08;;;7.67;;
37303;SDS011;23188;51.188;16.374;2022-10-31T05:13:14;12.75;;;8.08;;
37303;SDS011;23188;51.188;16.374;2022-10-31T05:17:16;9.95;;;8.15;;
37303;SDS011;23188;51.188;16.374;2022-10-31T05:21:17;13.98;;;8.83;;
37303;SDS011;23188;51.188;16.374;2022-10-31T05:25:18;17.55;;;8.15;;
37303;SDS011;23188;51.188;16.374;2022-10-31T05:29:28;14.70;;;8.80;;
37303;SDS011;23188;51.188;16.374;2022-10-31T05:33:32;15.15;;;9.35;;
37303;SDS011;23188;51.188;16.374;2022-10-31T05:37:33;17.23;;;9.00;;
37303;SDS011;23188;51.188;16.374;2022-10-31T05:41:37;12.10;;;8.45;;
37303;SDS011;23188;51.188;16.374;2022-10-31T05:45:38;21.65;;;10.72;;
37303;SDS011;23188;51.188;16.374;2022-10-31T05:49:39;14.98;;;9.05;;
37303;SDS011;23188;51.188;16.374;2022-10-31T05:53:40;15.50;;;9.23;;
37303;SDS011;23188;51.188;16.374;2022-10-31T05:57:41;12.73;;;8.50;;
37303;SDS011;23188;51.188;16.374;2022-10-31T06:01:42;17.82;;;9.23;;
37303;SDS011;23188;51.188;16.374;2022-10-31T06:05:43;14.40;;;10.70;;
37303;SDS011;23188;51.188;16.374;2022-10-31T06:09:45;14.98;;;8.63;;
37303;SDS011;23188;51.188;16.374;2022-10-31T06:13:46;22.48;;;10.45;;
37303;SDS011;23188;51.188;16.374;2022-10-31T06:22:04;14.30;;;8.45;;
37303;SDS011;23188;51.188;16.374;2022-10-31T06:30:39;17.00;;;9.60;;
37303;SDS011;23188;51.188;16.374;2022-10-31T06:34:41;12.00;;;9.48;;
37303;SDS011;23188;51.188;16.374;2022-10-31T06:38:43;20.10;;;10.13;;
37303;SDS011;23188;51.188;16.374;2022-10-31T06:42:45;25.95;;;10.50;;
37303;SDS011;23188;51.188;16.374;2022-10-31T06:46:46;14.13;;;9.48;;
37303;SDS011;23188;51.188;16.374;2022-10-31T06:50:48;18.40;;;11.28;;
37303;SDS011;23188;51.188;16.374;2022-10-31T06:54:50;20.45;;;10.35;;
37303;SDS011;23188;51.188;16.374;2022-10-31T06:58:51;13.03;;;8.20;;
37303;SDS011;23188;51.188;16.374;2022-10-31T07:02:57;13.88;;;8.78;;
37303;SDS011;23188;51.188;16.374;2022-10-31T07:07:04;14.30;;;9.50;;
37303;SDS011;23188;51.188;16.374;2022-10-31T07:11:05;19.30;;;9.95;;
37303;SDS011;23188;51.188;16.374;2022-10-31T07:15:07;20.52;;;11.22;;
37303;SDS011;23188;51.188;16.374;2022-10-31T07:19:09;15.40;;;7.70;;
37303;SDS011;23188;51.188;16.374;2022-10-31T07:23:11;11.08;;;8.20;;
37303;SDS011;23188;51.188;16.374;2022-10-31T07:27:14;12.95;;;8.83;;
37303;SDS011;23188;51.188;16.374;2022-10-31T07:31:18;10.87;;;7.17;;
37303;SDS011;23188;51.188;16.374;2022-10-31T07:35:25;14.68;;;7.30;;
37303;SDS011;23188;51.188;16.374;2022-10-31T07:39:27;10.85;;;6.53;;
37303;SDS011;23188;51.188;16.374;2022-10-31T07:43:29;11.10;;;6.47;;
37303;SDS011;23188;51.188;16.374;2022-10-31T07:47:37;13.93;;;6.30;;
37303;SDS011;23188;51.188;16.374;2022-10-31T07:51:42;14.13;;;7.20;;
37303;SDS011;23188;51.188;16.374;2022-10-31T08:00:22;9.93;;;6.05;;
37303;SDS011;23188;51.188;16.374;2022-10-31T08:04:24;12.73;;;6.25;;
37303;SDS011;23188;51.188;16.374;2022-10-31T08:08:25;13.85;;;5.78;;
37303;SDS011;23188;51.188;16.374;2022-10-31T08:12:29;10.28;;;6.25;;
37303;SDS011;23188;51.188;16.374;2022-10-31T08:16:32;10.82;;;6.12;;
37303;SDS011;23188;51.188;16.374;2022-10-31T08:20:34;15.25;;;7.45;;
37303;SDS011;23188;51.188;16.374;2022-10-31T08:33:52;15.10;;;8.60;;
37303;SDS011;23188;51.188;16.374;2022-10-31T08:37:54;10.60;;;6.70;;
37303;SDS011;23188;51.188;16.374;2022-10-31T08:41:56;17.05;;;8.95;;
37303;SDS011;23188;51.188;16.374;2022-10-31T08:45:58;18.55;;;8.78;;
37303;SDS011;23188;51.188;16.374;2022-10-31T08:49:59;10.23;;;6.97;;
37303;SDS011;23188;51.188;16.374;2022-10-31T08:54:00;12.33;;;8.00;;
37303;SDS011;23188;51.188;16.374;2022-10-31T08:58:02;11.22;;;8.23;;
37303;SDS011;23188;51.188;16.374;2022-10-31T09:02:14;8.20;;;6.15;;
37303;SDS011;23188;51.188;16.374;2022-10-31T09:06:15;14.40;;;7.25;;
37303;SDS011;23188;51.188;16.374;2022-10-31T09:10:16;12.00;;;7.25;;
37303;SDS011;23188;51.188;16.374;2022-10-31T09:14:18;11.53;;;5.78;;
37303;SDS011;23188;51.188;16.374;2022-10-31T09:18:20;12.10;;;5.37;;
37303;SDS011;23188;51.188;16.374;2022-10-31T09:22:23;9.35;;;6.30;;
37303;SDS011;23188;51.188;16.374;2022-10-31T09:26:24;10.58;;;6.87;;
37303;SDS011;23188;51.188;16.374;2022-10-31T09:30:26;11.90;;;6.40;;
37303;SDS011;23188;51.188;16.374;2022-10-31T09:34:32;8.63;;;4.65;;
37303;SDS011;23188;51.188;16.374;2022-10-31T09:38:33;7.72;;;4.80;;
37303;SDS011;23188;51.188;16.374;2022-10-31T09:42:38;10.82;;;5.50;;
37303;SDS011;23188;51.188;16.374;2022-10-31T09:51:15;11.18;;;4.90;;
37303;SDS011;23188;51.188;16.374;2022-10-31T09:59:48;13.53;;;6.10;;
37303;SDS011;23188;51.188;16.374;2022-10-31T10:03:51;8.18;;;5.10;;
37303;SDS011;23188;51.188;16.374;2022-10-31T10:08:01;12.80;;;7.37;;
37303;SDS011;23188;51.188;16.374;2022-10-31T10:12:18;6.85;;;5.42;;
37303;SDS011;23188;51.188;16.374;2022-10-31T10:16:35;12.68;;;6.50;;
37303;SDS011;23188;51.188;16.374;2022-10-31T10:48:07;12.40;;;6.15;;
37303;SDS011;23188;51.188;16.374;2022-10-31T10:56:47;21.27;;;7.40;;
37303;SDS011;23188;51.188;16.374;2022-10-31T11:00:57;13.75;;;5.95;;
37303;SDS011;23188;51.188;16.374;2022-10-31T11:05:00;8.35;;;5.80;;
37303;SDS011;23188;51.188;16.374;2022-10-31T11:09:09;8.53;;;5.10;;
37303;SDS011;23188;51.188;16.374;2022-10-31T11:17:25;10.10;;;6.08;;
37303;SDS011;23188;51.188;16.374;2022-10-31T11:21:34;10.68;;;6.85;;
37303;SDS011;23188;51.188;16.374;2022-10-31T11:25:36;10.65;;;5.87;;
37303;SDS011;23188;51.188;16.374;2022-10-31T11:29:38;12.20;;;6.83;;
37303;SDS011;23188;51.188;16.374;2022-10-31T11:33:52;15.50;;;8.10;;
37303;SDS011;23188;51.188;16.374;2022-10-31T11:37:54;11.22;;;6.65;;
37303;SDS011;23188;51.188;16.374;2022-10-31T11:41:59;11.35;;;6.17;;
37303;SDS011;23188;51.188;16.374;2022-10-31T11:46:10;14.00;;;7.37;;
37303;SDS011;23188;51.188;16.374;2022-10-31T11:50:19;9.68;;;7.10;;
37303;SDS011;23188;51.188;16.374;2022-10-31T11:54:48;15.80;;;7.70;;
37303;SDS011;23188;51.188;16.374;2022-10-31T11:59:04;14.15;;;7.60;;
37303;SDS011;23188;51.188;16.374;2022-10-31T12:07:32;10.03;;;6.97;;
37303;SDS011;23188;51.188;16.374;2022-10-31T12:15:53;12.30;;;7.60;;
37303;SDS011;23188;51.188;16.374;2022-10-31T12:32:57;19.02;;;8.28;;
37303;SDS011;23188;51.188;16.374;2022-10-31T12:37:23;15.95;;;9.45;;
37303;SDS011;23188;51.188;16.374;2022-10-31T12:41:46;17.00;;;7.92;;
37303;SDS011;23188;51.188;16.374;2022-10-31T12:46:10;17.37;;;8.90;;
37303;SDS011;23188;51.188;16.374;2022-10-31T13:00:03;15.72;;;8.63;;
37303;SDS011;23188;51.188;16.374;2022-10-31T13:04:39;12.07;;;7.45;;
37303;SDS011;23188;51.188;16.374;2022-10-31T13:08:53;12.80;;;8.60;;
37303;SDS011;23188;51.188;16.374;2022-10-31T13:13:00;15.63;;;8.75;;
37303;SDS011;23188;51.188;16.374;2022-10-31T13:17:12;12.30;;;7.17;;
37303;SDS011;23188;51.188;16.374;2022-10-31T13:21:30;9.55;;;6.83;;
37303;SDS011;23188;51.188;16.374;2022-10-31T13:25:44;11.57;;;7.22;;
37303;SDS011;23188;51.188;16.374;2022-10-31T13:30:04;19.87;;;7.72;;
37303;SDS011;23188;51.188;16.374;2022-10-31T13:34:28;7.08;;;5.72;;
37303;SDS011;23188;51.188;16.374;2022-10-31T13:39:02;18.65;;;8.78;;
37303;SDS011;23188;51.188;16.374;2022-10-31T13:47:56;14.75;;;7.42;;
37303;SDS011;23188;51.188;16.374;2022-10-31T13:56:18;15.28;;;8.83;;
37303;SDS011;23188;51.188;16.374;2022-10-31T14:00:30;9.75;;;7.80;;
37303;SDS011;23188;51.188;16.374;2022-10-31T14:04:38;16.73;;;7.95;;
37303;SDS011;23188;51.188;16.374;2022-10-31T14:08:55;16.10;;;8.10;;
37303;SDS011;23188;51.188;16.374;2022-10-31T14:17:16;12.35;;;7.10;;
37303;SDS011;23188;51.188;16.374;2022-10-31T14:25:32;13.75;;;7.75;;
37303;SDS011;23188;51.188;16.374;2022-10-31T14:47:58;15.30;;;9.90;;
37303;SDS011;23188;51.188;16.374;2022-10-31T14:52:07;13.10;;;8.13;;
37303;SDS011;23188;51.188;16.374;2022-10-31T14:56:13;16.87;;;7.65;;
37303;SDS011;23188;51.188;16.374;2022-10-31T15:04:58;18.00;;;7.60;;
37303;SDS011;23188;51.188;16.374;2022-10-31T15:08:59;23.70;;;9.23;;
37303;SDS011;23188;51.188;16.374;2022-10-31T15:13:10;16.35;;;9.68;;
37303;SDS011;23188;51.188;16.374;2022-10-31T15:17:25;27.37;;;13.62;;
37303;SDS011;23188;51.188;16.374;2022-10-31T15:21:29;29.40;;;12.25;;
37303;SDS011;23188;51.188;16.374;2022-10-31T15:25:37;18.52;;;13.62;;
37303;SDS011;23188;51.188;16.374;2022-10-31T15:29:46;21.12;;;11.65;;
37303;SDS011;23188;51.188;16.374;2022-10-31T15:38:16;19.10;;;9.78;;
37303;SDS011;23188;51.188;16.374;2022-10-31T15:42:25;17.60;;;10.85;;
37303;SDS011;23188;51.188;16.374;2022-10-31T15:46:32;78.27;;;39.93;;
37303;SDS011;23188;51.188;16.374;2022-10-31T15:54:53;28.15;;;13.55;;
37303;SDS011;23188;51.188;16.374;2022-10-31T15:59:18;29.55;;;20.30;;
37303;SDS011;23188;51.188;16.374;2022-10-31T16:03:30;30.75;;;21.62;;
37303;SDS011;23188;51.188;16.374;2022-10-31T16:07:32;33.73;;;19.90;;
37303;SDS011;23188;51.188;16.374;2022-10-31T16:15:56;44.55;;;28.35;;
37303;SDS011;23188;51.188;16.374;2022-10-31T16:20:22;115.92;;;78.45;;
37303;SDS011;23188;51.188;16.374;2022-10-31T16:24:30;114.85;;;82.02;;
37303;SDS011;23188;51.188;16.374;2022-10-31T16:28:35;75.42;;;49.05;;
37303;SDS011;23188;51.188;16.374;2022-10-31T16:32:59;51.70;;;36.33;;
37303;SDS011;23188;51.188;16.374;2022-10-31T16:37:01;52.62;;;31.07;;
37303;SDS011;23188;51.188;16.374;2022-10-31T16:41:09;72.72;;;41.33;;
37303;SDS011;23188;51.188;16.374;2022-10-31T16:45:15;50.12;;;29.05;;
37303;SDS011;23188;51.188;16.374;2022-10-31T16:49:19;44.15;;;28.75;;
37303;SDS011;23188;51.188;16.374;2022-10-31T16:53:21;61.23;;;33.18;;
37303;SDS011;23188;51.188;16.374;2022-10-31T16:57:27;75.75;;;41.73;;
37303;SDS011;23188;51.188;16.374;2022-10-31T17:01:31;85.20;;;47.73;;
37303;SDS011;23188;51.188;16.374;2022-10-31T17:05:36;64.95;;;39.88;;
37303;SDS011;23188;51.188;16.374;2022-10-31T17:13:51;79.72;;;57.23;;
37303;SDS011;23188;51.188;16.374;2022-10-31T17:17:54;64.75;;;45.52;;
37303;SDS011;23188;51.188;16.374;2022-10-31T17:22:01;60.03;;;38.38;;
37303;SDS011;23188;51.188;16.374;2022-10-31T17:26:03;56.50;;;35.13;;
37303;SDS011;23188;51.188;16.374;2022-10-31T17:30:06;48.05;;;31.42;;
37303;SDS011;23188;51.188;16.374;2022-10-31T17:34:09;67.62;;;45.43;;
37303;SDS011;23188;51.188;16.374;2022-10-31T17:38:10;55.60;;;30.95;;
37303;SDS011;23188;51.188;16.374;2022-10-31T17:42:17;44.10;;;31.25;;
37303;SDS011;23188;51.188;16.374;2022-10-31T17:46:19;46.48;;;32.35;;
37303;SDS011;23188;51.188;16.374;2022-10-31T17:50:23;41.20;;;26.75;;
37303;SDS011;23188;51.188;16.374;2022-10-31T17:54:36;36.17;;;23.42;;
37303;SDS011;23188;51.188;16.374;2022-10-31T17:58:45;43.98;;;28.85;;
37303;SDS011;23188;51.188;16.374;2022-10-31T18:02:46;41.37;;;27.35;;
37303;SDS011;23188;51.188;16.374;2022-10-31T18:06:48;38.00;;;25.27;;
37303;SDS011;23188;51.188;16.374;2022-10-31T18:15:04;34.38;;;28.90;;
37303;SDS011;23188;51.188;16.374;2022-10-31T18:19:06;38.65;;;25.08;;
37303;SDS011;23188;51.188;16.374;2022-10-31T18:23:08;42.70;;;25.48;;
37303;SDS011;23188;51.188;16.374;2022-10-31T18:27:09;40.23;;;23.87;;
37303;SDS011;23188;51.188;16.374;2022-10-31T18:31:11;42.93;;;27.15;;
37303;SDS011;23188;51.188;16.374;2022-10-31T18:35:12;45.90;;;34.60;;
37303;SDS011;23188;51.188;16.374;2022-10-31T18:39:13;45.08;;;34.03;;
37303;SDS011;23188;51.188;16.374;2022-10-31T18:43:15;54.80;;;33.70;;
37303;SDS011;23188;51.188;16.374;2022-10-31T18:47:17;43.80;;;31.60;;
37303;SDS011;23188;51.188;16.374;2022-10-31T18:51:18;37.17;;;25.32;;
37303;SDS011;23188;51.188;16.374;2022-10-31T18:55:24;34.30;;;24.25;;
37303;SDS011;23188;51.188;16.374;2022-10-31T18:59:25;40.50;;;27.07;;
37303;SDS011;23188;51.188;16.374;2022-10-31T19:03:27;45.60;;;27.48;;
37303;SDS011;23188;51.188;16.374;2022-10-31T19:07:28;46.98;;;31.68;;
37303;SDS011;23188;51.188;16.374;2022-10-31T19:11:31;46.28;;;31.25;;
37303;SDS011;23188;51.188;16.374;2022-10-31T19:15:33;38.80;;;30.23;;
37303;SDS011;23188;51.188;16.374;2022-10-31T19:19:37;37.45;;;26.68;;
37303;SDS011;23188;51.188;16.374;2022-10-31T19:23:38;44.48;;;28.57;;
37303;SDS011;23188;51.188;16.374;2022-10-31T19:27:40;42.00;;;27.98;;
37303;SDS011;23188;51.188;16.374;2022-10-31T19:31:42;48.20;;;33.42;;
37303;SDS011;23188;51.188;16.374;2022-10-31T19:35:43;42.00;;;29.30;;
37303;SDS011;23188;51.188;16.374;2022-10-31T19:39:45;50.58;;;34.83;;
37303;SDS011;23188;51.188;16.374;2022-10-31T19:43:47;45.00;;;30.43;;
37303;SDS011;23188;51.188;16.374;2022-10-31T19:47:49;44.77;;;30.30;;
37303;SDS011;23188;51.188;16.374;2022-10-31T19:51:50;49.98;;;30.05;;
37303;SDS011;23188;51.188;16.374;2022-10-31T19:55:51;43.20;;;29.20;;
37303;SDS011;23188;51.188;16.374;2022-10-31T19:59:52;37.00;;;24.75;;
37303;SDS011;23188;51.188;16.374;2022-10-31T20:03:58;57.15;;;36.98;;
37303;SDS011;23188;51.188;16.374;2022-10-31T20:12:05;46.77;;;29.72;;
37303;SDS011;23188;51.188;16.374;2022-10-31T20:16:08;50.48;;;29.90;;
37303;SDS011;23188;51.188;16.374;2022-10-31T20:20:12;43.78;;;29.37;;
37303;SDS011;23188;51.188;16.374;2022-10-31T20:24:14;47.30;;;29.87;;
37303;SDS011;23188;51.188;16.374;2022-10-31T20:28:18;50.88;;;30.62;;
37303;SDS011;23188;51.188;16.374;2022-10-31T20:32:19;51.02;;;33.40;;
37303;SDS011;23188;51.188;16.374;2022-10-31T20:36:27;57.85;;;37.30;;
37303;SDS011;23188;51.188;16.374;2022-10-31T20:40:30;54.08;;;34.73;;
37303;SDS011;23188;51.188;16.374;2022-10-31T20:44:32;62.43;;;38.53;;
37303;SDS011;23188;51.188;16.374;2022-10-31T20:48:33;65.32;;;41.60;;
37303;SDS011;23188;51.188;16.374;2022-10-31T20:52:35;56.88;;;32.30;;
37303;SDS011;23188;51.188;16.374;2022-10-31T20:56:41;43.78;;;31.05;;
37303;SDS011;23188;51.188;16.374;2022-10-31T21:00:43;52.73;;;33.30;;
37303;SDS011;23188;51.188;16.374;2022-10-31T21:04:45;56.95;;;34.45;;
37303;SDS011;23188;51.188;16.374;2022-10-31T21:08:46;51.33;;;34.38;;
37303;SDS011;23188;51.188;16.374;2022-10-31T21:12:47;43.23;;;30.55;;
37303;SDS011;23188;51.188;16.374;2022-10-31T21:16:48;42.83;;;28.73;;
37303;SDS011;23188;51.188;16.374;2022-10-31T21:20:50;35.90;;;28.32;;
37303;SDS011;23188;51.188;16.374;2022-10-31T21:24:51;43.15;;;27.77;;
37303;SDS011;23188;51.188;16.374;2022-10-31T21:28:54;42.73;;;29.12;;
37303;SDS011;23188;51.188;16.374;2022-10-31T21:32:57;45.10;;;31.82;;
37303;SDS011;23188;51.188;16.374;2022-10-31T21:36:59;44.20;;;29.37;;
37303;SDS011;23188;51.188;16.374;2022-10-31T21:41:04;66.60;;;30.88;;
37303;SDS011;23188;51.188;16.374;2022-10-31T21:45:10;46.00;;;28.52;;
37303;SDS011;23188;51.188;16.374;2022-10-31T21:53:28;39.63;;;28.85;;
37303;SDS011;23188;51.188;16.374;2022-10-31T21:57:49;32.85;;;26.00;;
37303;SDS011;23188;51.188;16.374;2022-10-31T22:01:51;46.10;;;27.45;;
37303;SDS011;23188;51.188;16.374;2022-10-31T22:05:55;40.52;;;27.20;;
37303;SDS011;23188;51.188;16.374;2022-10-31T22:10:00;48.17;;;29.77;;
37303;SDS011;23188;51.188;16.374;2022-10-31T22:14:02;39.33;;;30.35;;
37303;SDS011;23188;51.188;16.374;2022-10-31T22:18:04;42.78;;;30.65;;
37303;SDS011;23188;51.188;16.374;2022-10-31T22:22:09;43.02;;;27.65;;
37303;SDS011;23188;51.188;16.374;2022-10-31T22:26:13;35.75;;;24.27;;
37303;SDS011;23188;51.188;16.374;2022-10-31T22:30:15;36.17;;;25.62;;
37303;SDS011;23188;51.188;16.374;2022-10-31T22:34:22;35.75;;;27.15;;
37303;SDS011;23188;51.188;16.374;2022-10-31T22:38:24;42.78;;;27.77;;
37303;SDS011;23188;51.188;16.374;2022-10-31T22:42:25;40.17;;;29.32;;
37303;SDS011;23188;51.188;16.374;2022-10-31T22:46:28;40.48;;;30.37;;
37303;SDS011;23188;51.188;16.374;2022-10-31T22:59:19;57.45;;;36.75;;
37303;SDS011;23188;51.188;16.374;2022-10-31T23:03:21;61.18;;;35.83;;
37303;SDS011;23188;51.188;16.374;2022-10-31T23:07:23;60.48;;;40.25;;
37303;SDS011;23188;51.188;16.374;2022-10-31T23:11:27;67.05;;;45.35;;
37303;SDS011;23188;51.188;16.374;2022-10-31T23:24:50;60.90;;;44.00;;
37303;SDS011;23188;51.188;16.374;2022-10-31T23:28:51;64.50;;;41.23;;
37303;SDS011;23188;51.188;16.374;2022-10-31T23:32:52;65.87;;;44.30;;
37303;SDS011;23188;51.188;16.374;2022-10-31T23:36:54;58.68;;;42.23;;
37303;SDS011;23188;51.188;16.374;2022-10-31T23:40:56;52.15;;;40.67;;
37303;SDS011;23188;51.188;16.374;2022-10-31T23:44:57;65.55;;;41.77;;
37303;SDS011;23188;51.188;16.374;2022-10-31T23:48:59;66.20;;;41.63;;
37303;SDS011;23188;51.188;16.374;2022-10-31T23:53:00;45.78;;;34.58;;
37303;SDS011;23188;51.188;16.374;2022-10-31T23:57:01;52.17;;;39.65;;
